Time;durP1;ratioP1;P1;durP2;ratioP2;P2;SDS_P1;SDS_P2;PMS_P1;PMS_P2;Temp;Humidity;BMP_temperature;BMP_pressure;BME280_temperature;BME280_humidity;BME280_pressure;Samples;Min_cycle;Max_cycle;Signal;HPM_P1;HPM_P2
2022/01/19 00:01:17;;;;;;;4.22;3.38;;;3.30;99.90;;;;;;5031331;28;20046;-88
2022/01/19 00:03:44;;;;;;;3.70;3.40;;;3.40;99.90;;;;;;5030994;28;20457;-89
2022/01/19 00:06:12;;;;;;;3.08;2.67;;;3.40;99.90;;;;;;5030782;28;20556;-89
2022/01/19 00:08:39;;;;;;;5.43;3.55;;;3.30;99.90;;;;;;5031215;28;20056;-89
2022/01/19 00:11:06;;;;;;;5.75;4.03;;;3.30;99.90;;;;;;5031165;28;20471;-89
2022/01/19 00:13:33;;;;;;;3.17;2.97;;;3.30;99.90;;;;;;5030969;28;20500;-89
2022/01/19 00:16:00;;;;;;;3.13;2.70;;;3.30;99.90;;;;;;5030355;28;20145;-89
2022/01/19 00:18:27;;;;;;;3.15;2.95;;;3.30;99.90;;;;;;5030915;28;20069;-89
2022/01/19 00:20:54;;;;;;;3.30;3.00;;;3.30;99.90;;;;;;5031235;28;20122;-89
2022/01/19 00:23:22;;;;;;;3.33;3.03;;;3.30;99.90;;;;;;5030667;28;20073;-89
2022/01/19 00:25:51;;;;;;;1.50;1.50;;;3.30;99.90;;;;;;5030729;28;20410;-89
2022/01/19 00:28:18;;;;;;;2.35;2.15;;;3.30;99.90;;;;;;5030528;28;20060;-89
2022/01/19 00:30:45;;;;;;;2.20;2.10;;;3.30;99.90;;;;;;5030663;28;20410;-89
2022/01/19 00:33:13;;;;;;;2.38;2.22;;;3.20;99.90;;;;;;5030735;28;20061;-89
2022/01/19 00:35:40;;;;;;;1.77;1.67;;;3.20;99.90;;;;;;5030745;28;20108;-89
2022/01/19 00:38:08;;;;;;;1.60;1.50;;;3.20;99.90;;;;;;5030749;28;20060;-88
2022/01/19 00:40:37;;;;;;;2.38;1.77;;;3.30;99.90;;;;;;5030002;28;20065;-89
2022/01/19 00:43:04;;;;;;;3.83;1.70;;;3.20;99.90;;;;;;5030345;28;20140;-89
2022/01/19 00:45:31;;;;;;;2.45;1.95;;;3.20;99.90;;;;;;5030360;28;20056;-89
2022/01/19 00:48:17;;;;;;;1.80;1.70;;;3.20;99.90;;;;;;5027821;28;20054;-89
2022/01/19 00:50:44;;;;;;;2.22;2.03;;;3.20;99.90;;;;;;5030337;28;20053;-89
2022/01/19 00:53:11;;;;;;;1.40;1.40;;;3.20;99.90;;;;;;5030298;28;20137;-89
2022/01/19 00:55:38;;;;;;;1.38;1.38;;;3.20;99.90;;;;;;5029925;28;20388;-89
2022/01/19 00:58:05;;;;;;;1.50;1.40;;;3.20;99.90;;;;;;5030247;28;20048;-89
2022/01/19 01:00:32;;;;;;;1.70;1.60;;;3.20;99.90;;;;;;5030097;28;20056;-89
2022/01/19 01:02:58;;;;;;;1.70;1.67;;;3.10;99.90;;;;;;5030451;28;20140;-88
2022/01/19 01:05:30;;;;;;;1.95;1.85;;;3.20;99.90;;;;;;5029538;28;20086;-89
2022/01/19 01:07:57;;;;;;;2.22;2.05;;;3.20;99.90;;;;;;5029846;28;20136;-89
2022/01/19 01:10:23;;;;;;;1.95;1.85;;;3.20;99.90;;;;;;5029908;28;20486;-89
2022/01/19 01:12:52;;;;;;;1.75;1.40;;;3.20;99.90;;;;;;5029798;28;20144;-89
2022/01/19 01:20:36;;;;;;;2.05;1.90;;;3.30;99.90;;;;;;5014307;28;20084;-89
2022/01/19 01:23:05;;;;;;;2.20;2.10;;;3.30;99.90;;;;;;5029696;28;20137;-89
2022/01/19 01:25:32;;;;;;;2.47;1.92;;;3.30;99.90;;;;;;5029762;28;20413;-89
2022/01/19 01:27:58;;;;;;;2.60;2.47;;;3.30;99.90;;;;;;5029807;28;20056;-89
2022/01/19 01:30:25;;;;;;;2.83;2.58;;;3.30;99.90;;;;;;5030019;28;20406;-89
2022/01/19 01:32:52;;;;;;;2.88;2.67;;;3.10;99.90;;;;;;5029675;28;20535;-89
2022/01/19 01:35:19;;;;;;;3.33;3.13;;;3.10;99.90;;;;;;5029647;28;20056;-89
2022/01/19 01:37:46;;;;;;;3.22;2.95;;;3.10;99.90;;;;;;5029746;28;20064;-89
2022/01/19 01:40:13;;;;;;;3.95;2.55;;;3.20;99.90;;;;;;5029276;28;20426;-89
2022/01/19 01:42:41;;;;;;;2.97;2.65;;;3.10;99.90;;;;;;5029777;28;20490;-89
2022/01/19 01:45:15;;;;;;;2.80;2.60;;;3.00;99.90;;;;;;5029268;28;20046;-88
2022/01/19 01:47:50;;;;;;;2.90;2.67;;;3.10;99.90;;;;;;5029416;28;20137;-89
2022/01/19 01:55:29;;;;;;;3.70;3.38;;;3.10;99.90;;;;;;5014180;28;20143;-89
2022/01/19 01:57:56;;;;;;;4.07;3.78;;;3.10;99.90;;;;;;5029281;28;20137;-89
2022/01/19 02:00:25;;;;;;;4.32;4.03;;;3.10;99.90;;;;;;5029536;28;20071;-89
2022/01/19 02:02:52;;;;;;;4.15;3.85;;;3.10;99.90;;;;;;5029367;28;20065;-89
2022/01/19 02:05:22;;;;;;;4.50;3.75;;;3.20;99.90;;;;;;5029008;28;20050;-89
2022/01/19 02:08:04;;;;;;;3.80;3.50;;;3.20;99.90;;;;;;5029346;28;20057;-89
2022/01/19 02:15:56;;;;;;;4.03;3.72;;;3.20;99.90;;;;;;5013900;28;20122;-89
2022/01/19 02:23:57;;;;;;;4.30;3.90;;;3.20;99.90;;;;;;5013522;28;20141;-89
2022/01/19 02:26:49;;;;;;;4.07;3.78;;;3.20;99.90;;;;;;5029098;28;20054;-88
2022/01/19 02:30:06;;;;;;;3.65;3.35;;;3.10;99.90;;;;;;5028783;28;20457;-89
2022/01/19 02:40:29;;;;;;;4.20;3.85;;;3.10;99.90;;;;;;5015289;28;20060;-89
2022/01/19 02:51:01;;;;;;;3.80;3.50;;;3.10;99.90;;;;;;5017158;28;20481;-89
2022/01/19 02:53:28;;;;;;;3.80;3.60;;;3.20;99.90;;;;;;5032612;28;20076;-89
2022/01/19 02:55:54;;;;;;;4.10;3.90;;;3.20;99.90;;;;;;5032513;28;20046;-89
2022/01/19 02:58:23;;;;;;;4.22;3.92;;;3.10;99.90;;;;;;5032244;28;20541;-88
2022/01/19 03:09:21;;;;;;;4.35;4.05;;;3.20;99.90;;;;;;5016870;28;20071;-89
2022/01/19 03:11:48;;;;;;;3.90;3.60;;;3.10;99.90;;;;;;5032301;28;20054;-88
2022/01/19 03:14:17;;;;;;;3.95;3.63;;;3.10;99.90;;;;;;5032072;28;20137;-89
2022/01/19 03:16:44;;;;;;;3.83;3.53;;;3.10;99.90;;;;;;5032175;28;20550;-88
2022/01/19 03:19:12;;;;;;;4.00;3.70;;;3.10;99.90;;;;;;5031887;28;20395;-89
2022/01/19 03:21:40;;;;;;;4.30;3.95;;;3.20;99.90;;;;;;5031974;28;20426;-89
2022/01/19 03:24:08;;;;;;;4.43;4.03;;;3.20;99.90;;;;;;5031931;28;20045;-88
2022/01/19 03:26:35;;;;;;;3.65;3.40;;;3.20;99.90;;;;;;5032285;28;20050;-89
2022/01/19 03:29:01;;;;;;;4.38;3.97;;;3.10;99.90;;;;;;5031644;28;20136;-89
2022/01/19 03:31:28;;;;;;;4.18;3.88;;;3.00;99.90;;;;;;5031663;28;20045;-88
2022/01/19 03:33:55;;;;;;;3.90;3.60;;;3.00;99.90;;;;;;5031830;28;20053;-88
2022/01/19 03:36:22;;;;;;;4.30;3.95;;;3.00;99.90;;;;;;5031705;28;20056;-88
2022/01/19 03:38:49;;;;;;;4.47;4.05;;;3.00;99.90;;;;;;5031458;28;20054;-88
2022/01/19 03:41:15;;;;;;;3.60;3.40;;;3.00;99.90;;;;;;5031594;28;20049;-88
2022/01/19 03:43:42;;;;;;;4.97;4.40;;;3.00;99.90;;;;;;5031506;28;20054;-88
2022/01/19 03:46:14;;;;;;;4.10;3.80;;;3.00;99.90;;;;;;5031505;28;20055;-88
2022/01/19 03:51:13;;;;;;;4.15;3.85;;;3.10;99.90;;;;;;5015000;28;20124;-88
2022/01/19 03:53:40;;;;;;;3.70;3.50;;;3.00;99.90;;;;;;5031402;28;20188;-88
2022/01/19 03:56:07;;;;;;;4.20;3.90;;;3.00;99.90;;;;;;5031059;28;20421;-88
2022/01/19 03:58:35;;;;;;;4.47;4.18;;;3.00;99.90;;;;;;5031169;28;20481;-88
2022/01/19 04:01:04;;;;;;;3.92;3.72;;;3.00;99.90;;;;;;5031229;28;20148;-88
2022/01/19 04:06:53;;;;;;;3.47;3.28;;;2.90;99.90;;;;;;5005031;28;20045;-88
2022/01/19 04:09:19;;;;;;;3.60;3.30;;;2.80;99.90;;;;;;5016041;28;20081;-88
2022/01/19 04:11:46;;;;;;;4.00;3.80;;;2.80;99.90;;;;;;5031225;28;20520;-88
2022/01/19 04:14:21;;;;;;;4.10;3.80;;;2.70;99.90;;;;;;5030865;28;20124;-88
2022/01/19 04:17:10;;;;;;;4.30;4.00;;;2.70;99.90;;;;;;5030970;28;20076;-88
2022/01/19 04:19:44;;;;;;;4.38;4.07;;;2.70;99.90;;;;;;5030683;28;20184;-88
2022/01/19 04:22:20;;;;;;;4.72;4.32;;;2.70;99.90;;;;;;5030955;28;20046;-88
2022/01/19 04:24:48;;;;;;;4.60;4.22;;;2.70;99.90;;;;;;5030775;28;20565;-89
2022/01/19 04:29:59;;;;;;;4.25;3.95;;;2.60;99.90;;;;;;5015259;28;20471;-88
2022/01/19 04:32:37;;;;;;;4.25;3.95;;;2.50;99.90;;;;;;5030686;28;20137;-88
2022/01/19 04:35:07;;;;;;;4.95;4.55;;;2.50;99.90;;;;;;5030869;28;20053;-88
2022/01/19 04:37:47;;;;;;;4.57;4.28;;;2.40;99.90;;;;;;5030688;28;20402;-88
2022/01/19 04:46:18;;;;;;;4.47;4.18;;;2.30;99.90;;;;;;5014920;28;20050;-88
2022/01/19 04:49:05;;;;;;;4.68;4.28;;;2.30;99.90;;;;;;5030337;28;20061;-88
2022/01/19 05:01:39;;;;;;;4.72;4.32;;;2.20;99.90;;;;;;5014955;28;20064;-88
2022/01/19 05:05:32;;;;;;;4.82;4.47;;;2.10;99.90;;;;;;5014356;28;20053;-89
2022/01/19 05:08:15;;;;;;;5.13;4.72;;;2.20;99.90;;;;;;5030160;28;20563;-88
2022/01/19 05:13:29;;;;;;;4.50;4.20;;;2.20;99.90;;;;;;5014590;28;20045;-88
2022/01/19 05:15:55;;;;;;;3.97;3.67;;;2.20;99.90;;;;;;5029997;28;20140;-88
2022/01/19 05:18:23;;;;;;;4.32;3.92;;;2.20;99.90;;;;;;5030028;28;20053;-88
2022/01/19 05:20:50;;;;;;;3.83;3.58;;;2.20;99.90;;;;;;5029980;28;20141;-88
2022/01/19 05:23:17;;;;;;;3.92;3.63;;;2.20;99.90;;;;;;5030079;28;20604;-88
2022/01/19 05:25:47;;;;;;;3.70;3.40;;;2.20;99.90;;;;;;5029841;28;20050;-89
2022/01/19 05:28:14;;;;;;;3.60;3.40;;;2.20;99.90;;;;;;5029507;28;20053;-88
2022/01/19 05:30:41;;;;;;;3.50;3.30;;;2.20;99.90;;;;;;5029964;28;20053;-88
2022/01/19 05:33:08;;;;;;;3.53;3.30;;;2.20;99.90;;;;;;5029807;28;20080;-87
2022/01/19 05:35:35;;;;;;;3.50;3.30;;;2.20;99.90;;;;;;5029658;28;20050;-88
2022/01/19 05:38:02;;;;;;;3.60;3.40;;;2.20;99.90;;;;;;5029831;28;20060;-88
2022/01/19 05:40:29;;;;;;;3.63;3.42;;;2.20;99.90;;;;;;5029519;28;20050;-88
2022/01/19 05:42:56;;;;;;;3.42;3.22;;;2.20;99.90;;;;;;5029890;28;20050;-88
2022/01/19 05:45:24;;;;;;;3.47;3.28;;;2.30;99.90;;;;;;5030099;28;20081;-88
2022/01/19 05:47:51;;;;;;;3.65;3.42;;;2.30;99.90;;;;;;5029188;28;20065;-87
2022/01/19 05:50:18;;;;;;;3.53;3.33;;;2.30;99.90;;;;;;5029400;28;20132;-88
2022/01/19 05:52:45;;;;;;;3.70;3.40;;;2.30;99.90;;;;;;5029260;28;20045;-88
2022/01/19 05:55:12;;;;;;;4.40;4.00;;;2.30;99.90;;;;;;5029027;28;20050;-88
2022/01/19 05:57:39;;;;;;;3.60;3.40;;;2.30;99.90;;;;;;5029215;28;20041;-88
2022/01/19 06:00:07;;;;;;;3.70;3.50;;;2.30;99.90;;;;;;5029162;28;20056;-89
2022/01/19 06:02:34;;;;;;;3.97;3.60;;;2.30;99.90;;;;;;5029140;28;20050;-89
2022/01/19 06:05:02;;;;;;;4.15;3.85;;;2.30;99.90;;;;;;5029037;28;20388;-88
2022/01/19 06:07:30;;;;;;;4.38;3.97;;;2.30;99.90;;;;;;5029569;28;20064;-88
2022/01/19 06:10:07;;;;;;;4.55;4.25;;;2.30;99.90;;;;;;5029118;28;20140;-88
2022/01/19 06:12:34;;;;;;;5.20;4.80;;;2.30;99.90;;;;;;5029005;28;20132;-88
2022/01/19 06:15:01;;;;;;;5.15;4.68;;;2.40;99.90;;;;;;5030516;28;20054;-87
2022/01/19 06:17:27;;;;;;;6.15;5.55;;;2.30;99.90;;;;;;5032994;28;20053;-88
2022/01/19 06:19:56;;;;;;;5.45;4.95;;;2.30;99.90;;;;;;5032901;28;20512;-88
2022/01/19 06:22:23;;;;;;;5.20;4.70;;;2.30;99.90;;;;;;5033056;28;20054;-88
2022/01/19 06:24:50;;;;;;;5.45;5.03;;;2.40;99.90;;;;;;5017560;28;20046;-88
2022/01/19 06:27:17;;;;;;;4.47;4.15;;;2.40;99.90;;;;;;5032630;28;20473;-87
2022/01/19 06:29:43;;;;;;;4.50;4.20;;;2.40;99.90;;;;;;5032854;28;20129;-88
2022/01/19 06:32:10;;;;;;;4.47;4.18;;;2.40;99.90;;;;;;5032986;28;20049;-88
2022/01/19 06:34:37;;;;;;;3.85;3.65;;;2.40;99.90;;;;;;5032912;28;20600;-87
2022/01/19 06:37:04;;;;;;;4.00;3.80;;;2.40;99.90;;;;;;5032729;28;20049;-88
2022/01/19 06:39:31;;;;;;;4.40;4.00;;;2.40;99.90;;;;;;5032623;28;20133;-87
2022/01/19 06:41:58;;;;;;;5.07;4.70;;;2.40;99.90;;;;;;5032741;28;20050;-87
2022/01/19 06:44:24;;;;;;;5.63;5.18;;;2.40;99.90;;;;;;5032594;28;20103;-88
2022/01/19 06:46:51;;;;;;;4.10;3.80;;;2.40;99.90;;;;;;5032358;28;20410;-88
2022/01/19 06:49:18;;;;;;;3.83;3.63;;;2.30;99.90;;;;;;5032523;28;20139;-88
2022/01/19 06:51:45;;;;;;;3.92;3.63;;;2.30;99.90;;;;;;5032325;28;20056;-88
2022/01/19 06:54:12;;;;;;;3.80;3.50;;;2.30;99.90;;;;;;5032544;28;20482;-88
2022/01/19 06:56:38;;;;;;;3.53;3.28;;;2.30;99.90;;;;;;5032337;28;20137;-89
2022/01/19 06:59:05;;;;;;;3.28;3.08;;;2.40;99.90;;;;;;5032305;28;20597;-88
2022/01/19 07:01:33;;;;;;;2.95;2.78;;;2.30;99.90;;;;;;5032389;28;20145;-89
2022/01/19 07:04:02;;;;;;;3.28;2.85;;;2.40;99.90;;;;;;5032211;28;20474;-88
2022/01/19 07:06:29;;;;;;;4.10;3.08;;;2.40;99.90;;;;;;5031973;28;20057;-87
2022/01/19 07:08:56;;;;;;;2.58;2.47;;;2.30;99.90;;;;;;5032394;28;20550;-88
2022/01/19 07:11:23;;;;;;;3.13;2.88;;;2.30;99.90;;;;;;5032162;28;20057;-89
2022/01/19 07:13:50;;;;;;;2.90;2.80;;;2.30;99.90;;;;;;5032157;28;20056;-88
2022/01/19 07:16:16;;;;;;;3.25;3.13;;;2.40;99.90;;;;;;5032114;28;20526;-87
2022/01/19 07:18:43;;;;;;;3.42;3.22;;;2.40;99.90;;;;;;5032096;28;20105;-88
2022/01/19 07:21:11;;;;;;;4.35;3.80;;;2.30;99.90;;;;;;5032050;28;20077;-88
2022/01/19 07:23:37;;;;;;;3.45;3.25;;;2.30;99.90;;;;;;5032000;28;20049;-88
2022/01/19 07:26:06;;;;;;;3.55;3.35;;;2.30;99.90;;;;;;5016126;28;20534;-88
2022/01/19 07:28:33;;;;;;;3.35;3.15;;;2.30;99.90;;;;;;5031352;28;20100;-88
2022/01/19 07:31:02;;;;;;;3.13;3.03;;;2.30;99.90;;;;;;5031910;28;20084;-88
2022/01/19 07:33:31;;;;;;;3.80;3.60;;;2.30;99.90;;;;;;5031665;28;20069;-87
2022/01/19 07:35:58;;;;;;;3.13;2.90;;;2.30;99.90;;;;;;5032221;28;20494;-89
2022/01/19 07:38:26;;;;;;;3.72;3.45;;;2.30;99.90;;;;;;5031660;28;20133;-87
2022/01/19 07:40:54;;;;;;;3.58;3.30;;;2.30;99.90;;;;;;5016553;28;20049;-87
2022/01/19 07:43:21;;;;;;;3.42;3.22;;;2.30;99.90;;;;;;5032313;28;20080;-89
2022/01/19 07:45:48;;;;;;;3.45;3.15;;;2.20;99.90;;;;;;5031588;28;20140;-88
2022/01/19 07:48:15;;;;;;;2.97;2.78;;;2.30;99.90;;;;;;5031604;28;20054;-87
2022/01/19 07:50:42;;;;;;;3.35;3.15;;;2.20;99.90;;;;;;5031735;28;20561;-87
2022/01/19 07:53:09;;;;;;;3.80;3.00;;;2.20;99.90;;;;;;5031559;28;20088;-87
2022/01/19 07:55:35;;;;;;;3.08;2.97;;;2.20;99.90;;;;;;5031594;28;20046;-87
2022/01/19 07:58:02;;;;;;;3.47;3.05;;;2.20;99.90;;;;;;5034028;28;20113;-89
2022/01/19 08:00:30;;;;;;;3.08;2.88;;;2.20;99.90;;;;;;5031940;28;20140;-87
2022/01/19 08:02:57;;;;;;;2.67;2.58;;;2.20;99.90;;;;;;5031244;28;20053;-88
2022/01/19 08:05:23;;;;;;;3.03;2.92;;;2.30;99.90;;;;;;5015721;28;20042;-89
2022/01/19 08:07:50;;;;;;;2.83;2.72;;;2.20;99.90;;;;;;5031351;28;20133;-90
2022/01/19 08:10:18;;;;;;;3.03;2.92;;;2.20;99.90;;;;;;5030905;28;20046;-88
2022/01/19 08:12:46;;;;;;;2.97;2.78;;;2.20;99.90;;;;;;5031391;28;20136;-93
2022/01/19 08:15:13;;;;;;;3.47;3.28;;;2.20;99.90;;;;;;5030791;28;20089;-88
2022/01/19 08:17:39;;;;;;;3.08;2.92;;;2.20;99.90;;;;;;5030971;28;20050;-91
2022/01/19 08:20:07;;;;;;;3.72;3.30;;;2.30;99.90;;;;;;5031108;28;20050;-89
2022/01/19 08:22:34;;;;;;;3.13;2.92;;;2.30;99.90;;;;;;5030985;28;20148;-87
2022/01/19 08:25:00;;;;;;;2.72;2.63;;;2.30;99.90;;;;;;5031124;28;20136;-90
2022/01/19 08:27:27;;;;;;;3.13;2.92;;;2.30;99.90;;;;;;5030410;28;20050;-88
2022/01/19 08:29:54;;;;;;;3.10;2.80;;;2.30;99.90;;;;;;5030734;28;20058;-88
2022/01/19 08:32:21;;;;;;;2.65;2.50;;;2.30;99.90;;;;;;5030494;28;20049;-87
2022/01/19 08:34:59;;;;;;;2.92;2.72;;;2.40;99.90;;;;;;5029401;28;20527;-88
2022/01/19 08:37:26;;;;;;;2.78;2.58;;;2.40;99.90;;;;;;5029963;28;20133;-88
2022/01/19 08:39:53;;;;;;;2.55;2.35;;;2.40;99.90;;;;;;5030184;28;20149;-88
2022/01/19 08:42:20;;;;;;;2.70;2.50;;;2.50;99.90;;;;;;5013756;28;20554;-89
2022/01/19 08:44:52;;;;;;;2.88;2.67;;;2.50;99.90;;;;;;5029810;28;20056;-87
2022/01/19 08:47:19;;;;;;;2.50;2.30;;;2.50;99.90;;;;;;5030376;28;20124;-89
2022/01/19 08:49:54;;;;;;;2.63;2.42;;;2.50;99.90;;;;;;5029753;28;20077;-89
2022/01/19 08:52:21;;;;;;;2.53;2.33;;;2.60;99.90;;;;;;5030229;28;20058;-88
2022/01/19 08:54:48;;;;;;;2.67;2.25;;;2.60;99.90;;;;;;5030116;28;20077;-87
2022/01/19 08:57:16;;;;;;;6.93;3.08;;;2.70;99.90;;;;;;5030397;28;20145;-86
2022/01/19 08:59:42;;;;;;;5.72;2.42;;;2.70;99.90;;;;;;5030016;28;20054;-90
2022/01/19 09:02:10;;;;;;;4.78;2.33;;;2.70;99.90;;;;;;5030345;28;20123;-88
2022/01/19 09:04:37;;;;;;;5.53;2.92;;;2.60;99.90;;;;;;5029947;28;20050;-88
2022/01/19 09:07:04;;;;;;;4.15;2.60;;;2.50;99.90;;;;;;5029665;28;20046;-89
2022/01/19 09:09:31;;;;;;;3.75;2.58;;;2.50;99.90;;;;;;5029986;28;20408;-88
2022/01/19 09:11:58;;;;;;;3.50;3.00;;;2.60;99.90;;;;;;5029912;28;20050;-88
2022/01/19 09:14:28;;;;;;;5.07;3.10;;;2.60;99.90;;;;;;5029691;28;20052;-88
2022/01/19 09:16:55;;;;;;;3.03;2.70;;;2.60;99.90;;;;;;5029856;28;20427;-88
2022/01/19 09:19:22;;;;;;;3.65;2.97;;;2.70;99.90;;;;;;5029771;28;20046;-88
2022/01/19 09:21:50;;;;;;;10.10;3.10;;;2.90;99.90;;;;;;5029964;28;20418;-88
2022/01/19 09:24:17;;;;;;;6.95;3.20;;;2.90;99.90;;;;;;5029869;28;20061;-88
2022/01/19 09:26:44;;;;;;;3.08;2.83;;;3.00;99.90;;;;;;5029065;28;20142;-88
2022/01/19 09:29:13;;;;;;;4.95;2.75;;;3.00;99.90;;;;;;5029331;28;20049;-88
2022/01/19 09:31:43;;;;;;;3.75;2.88;;;3.00;99.90;;;;;;5029552;28;20061;-88
2022/01/19 09:34:15;;;;;;;13.90;7.18;;;2.80;99.90;;;;;;5029373;28;20056;-88
2022/01/19 09:36:46;;;;;;;6.95;5.30;;;2.60;99.90;;;;;;5029515;28;20061;-87
2022/01/19 09:39:20;;;;;;;15.10;9.48;;;2.50;99.90;;;;;;5029271;28;20069;-87
2022/01/19 09:41:48;;;;;;;4.75;3.72;;;2.40;99.90;;;;;;5029538;28;20133;-87
2022/01/19 09:44:17;;;;;;;4.28;3.47;;;2.20;99.90;;;;;;5029437;28;20046;-87
2022/01/19 09:46:45;;;;;;;5.18;4.20;;;2.10;99.90;;;;;;5028930;28;20054;-88
2022/01/19 09:49:15;;;;;;;5.75;4.20;;;2.10;99.90;;;;;;5029236;28;20049;-88
2022/01/19 09:51:44;;;;;;;7.43;5.90;;;2.10;99.90;;;;;;5012902;28;20053;-87
2022/01/19 09:54:14;;;;;;;8.90;3.85;;;2.10;99.90;;;;;;5029097;28;20379;-87
2022/01/19 09:56:41;;;;;;;3.75;3.40;;;2.10;99.90;;;;;;5029183;28;20050;-87
2022/01/19 09:59:08;;;;;;;4.53;3.35;;;2.20;99.90;;;;;;5029243;28;20054;-88
2022/01/19 10:02:07;;;;;;;7.32;4.85;;;2.30;99.90;;;;;;5029253;28;20134;-87
2022/01/19 10:04:37;;;;;;;12.52;3.47;;;2.30;99.90;;;;;;5012670;28;20108;-88
2022/01/19 10:07:13;;;;;;;6.50;3.15;;;2.30;99.90;;;;;;5029124;28;20052;-88
2022/01/19 10:09:58;;;;;;;6.68;3.97;;;2.30;99.90;;;;;;5029352;28;20125;-88
2022/01/19 10:18:20;;;;;;;5.28;3.20;;;3.00;99.90;;;;;;5013841;28;20056;-87
2022/01/19 10:21:03;;;;;;;5.63;3.30;;;4.20;99.90;;;;;;5028994;28;20054;-88
2022/01/19 10:23:42;;;;;;;5.13;2.72;;;5.70;99.90;;;;;;5029118;28;20547;-88
2022/01/19 10:26:12;;;;;;;4.45;2.50;;;7.00;99.90;;;;;;5029008;28;20053;-88
2022/01/19 10:29:01;;;;;;;5.53;2.40;;;7.50;99.90;;;;;;5028879;28;20141;-88
2022/01/19 10:31:29;;;;;;;5.88;2.72;;;7.30;99.90;;;;;;5028864;28;20054;-87
2022/01/19 10:34:16;;;;;;;3.67;2.72;;;6.80;99.90;;;;;;5029188;28;20052;-89
2022/01/19 10:36:46;;;;;;;4.88;2.85;;;6.50;99.90;;;;;;5029246;28;20049;-88
2022/01/19 10:39:14;;;;;;;4.50;3.00;;;6.00;99.90;;;;;;5028771;28;20506;-88
2022/01/19 10:42:03;;;;;;;2.78;2.55;;;5.70;99.90;;;;;;5028924;28;20069;-89
2022/01/19 10:44:34;;;;;;;4.70;2.97;;;5.70;99.90;;;;;;5028864;28;20140;-88
2022/01/19 10:47:48;;;;;;;8.45;3.40;;;5.70;99.90;;;;;;5025909;28;20061;-87
2022/01/19 10:50:34;;;;;;;5.90;2.90;;;5.50;99.90;;;;;;5028390;28;20487;-89
2022/01/19 10:53:04;;;;;;;7.15;3.33;;;5.30;99.90;;;;;;5028974;28;20054;-89
2022/01/19 10:55:49;;;;;;;4.82;3.15;;;5.10;99.90;;;;;;5028894;28;20050;-88
2022/01/19 10:58:16;;;;;;;4.95;3.22;;;4.80;99.90;;;;;;5029009;28;20136;-86
2022/01/19 11:00:51;;;;;;;7.72;3.15;;;4.60;99.90;;;;;;5014355;28;20066;-89
2022/01/19 11:03:21;;;;;;;3.50;3.20;;;4.50;99.90;;;;;;5032719;28;20193;-87
2022/01/19 11:05:52;;;;;;;4.97;3.38;;;4.40;99.90;;;;;;5032643;28;20046;-89
2022/01/19 11:08:21;;;;;;;7.38;4.00;;;4.30;99.90;;;;;;5032570;28;20050;-89
2022/01/19 11:10:50;;;;;;;4.68;3.03;;;4.20;99.90;;;;;;5032178;28;20053;-88
2022/01/19 11:13:28;;;;;;;5.90;3.85;;;4.20;99.90;;;;;;5032275;28;20137;-88
2022/01/19 11:15:58;;;;;;;4.55;3.40;;;4.20;99.90;;;;;;5032032;28;20418;-89
2022/01/19 11:18:26;;;;;;;5.78;3.33;;;4.20;99.90;;;;;;5032024;28;20048;-87
2022/01/19 11:20:54;;;;;;;5.22;3.55;;;4.20;99.90;;;;;;5032002;28;20081;-87
2022/01/19 11:23:43;;;;;;;6.45;3.03;;;4.30;99.90;;;;;;5031875;28;20150;-90
2022/01/19 11:26:15;;;;;;;4.03;3.25;;;4.40;99.90;;;;;;5032064;28;20046;-87
2022/01/19 11:28:47;;;;;;;9.32;3.70;;;4.30;99.90;;;;;;5031608;28;20129;-88
2022/01/19 11:31:37;;;;;;;3.88;3.15;;;4.20;99.90;;;;;;5031947;28;20116;-88
2022/01/19 11:34:05;;;;;;;5.05;3.50;;;4.10;99.90;;;;;;5031906;28;20042;-87
2022/01/19 11:36:35;;;;;;;8.30;4.18;;;4.10;99.90;;;;;;5031975;28;20132;-88
2022/01/19 11:39:23;;;;;;;3.85;3.50;;;4.10;99.90;;;;;;5031542;28;20112;-87
2022/01/19 11:41:54;;;;;;;4.63;3.30;;;4.00;99.90;;;;;;5031716;28;20046;-88
2022/01/19 11:44:38;;;;;;;5.30;3.80;;;4.00;99.90;;;;;;5031641;28;20145;-89
2022/01/19 11:47:31;;;;;;;15.68;4.20;;;4.00;99.90;;;;;;5031775;28;20488;-89
2022/01/19 11:50:10;;;;;;;4.80;3.67;;;3.90;99.90;;;;;;5031842;28;20136;-88
2022/01/19 11:52:40;;;;;;;6.57;4.53;;;3.80;99.90;;;;;;5031725;28;20069;-88
2022/01/19 11:55:13;;;;;;;12.70;3.78;;;3.80;99.90;;;;;;5031599;28;20073;-88
2022/01/19 11:57:45;;;;;;;5.47;3.90;;;3.90;99.90;;;;;;5031473;28;20080;-89
2022/01/19 12:00:20;;;;;;;7.30;3.97;;;4.00;99.90;;;;;;5031651;28;20453;-88
2022/01/19 12:02:58;;;;;;;5.63;4.38;;;3.90;99.90;;;;;;5015277;28;20410;-89
2022/01/19 12:05:46;;;;;;;9.48;3.80;;;3.90;99.90;;;;;;5028991;28;20048;-87
2022/01/19 12:08:33;;;;;;;8.30;3.63;;;3.90;99.90;;;;;;5030860;28;20474;-87
2022/01/19 12:11:13;;;;;;;4.97;3.92;;;4.00;99.90;;;;;;5031413;28;20108;-90
2022/01/19 12:16:18;;;;;;;7.93;4.07;;;3.90;99.90;;;;;;5015848;28;20075;-87
2022/01/19 12:19:16;;;;;;;4.78;4.22;;;3.80;99.90;;;;;;5031337;28;20562;-87
2022/01/19 12:21:53;;;;;;;4.07;3.47;;;3.80;99.90;;;;;;5012115;28;20045;-88
2022/01/19 12:24:41;;;;;;;6.28;3.63;;;3.70;99.90;;;;;;5030167;28;20050;-87
2022/01/19 12:27:28;;;;;;;9.63;3.67;;;3.70;99.90;;;;;;5030708;28;20057;-87
2022/01/19 12:30:13;;;;;;;9.43;3.67;;;3.70;99.90;;;;;;5031058;28;20137;-87
2022/01/19 12:32:49;;;;;;;6.45;4.25;;;3.70;99.90;;;;;;5031008;28;20073;-87
2022/01/19 12:35:35;;;;;;;7.25;3.45;;;3.60;99.90;;;;;;5030999;28;20073;-89
2022/01/19 12:38:19;;;;;;;6.57;3.78;;;3.60;99.90;;;;;;5030513;28;20049;-89
2022/01/19 12:40:48;;;;;;;8.23;4.05;;;3.60;99.90;;;;;;5015273;28;20514;-87
2022/01/19 12:43:37;;;;;;;8.63;3.63;;;3.60;99.90;;;;;;5030894;28;20132;-86
2022/01/19 12:46:08;;;;;;;8.73;3.92;;;3.40;99.90;;;;;;5030769;28;20053;-86
2022/01/19 12:48:41;;;;;;;11.32;3.90;;;3.40;99.90;;;;;;5030624;28;20456;-88
2022/01/19 12:51:37;;;;;;;9.45;3.88;;;3.50;99.90;;;;;;5030609;28;20534;-86
2022/01/19 12:54:05;;;;;;;11.05;4.28;;;3.60;99.90;;;;;;5014283;28;20133;-87
2022/01/19 12:56:53;;;;;;;7.13;3.70;;;3.90;99.90;;;;;;5028580;28;20073;-87
2022/01/19 12:59:20;;;;;;;7.35;3.85;;;4.10;99.90;;;;;;5030544;28;20065;-91
2022/01/19 13:01:48;;;;;;;4.90;3.47;;;4.30;99.90;;;;;;5030380;28;20132;-87
2022/01/19 13:04:30;;;;;;;4.18;2.67;;;4.30;99.90;;;;;;5030410;28;20494;-88
2022/01/19 13:07:20;;;;;;;8.55;3.50;;;4.20;99.90;;;;;;5029650;28;20053;-86
2022/01/19 13:10:27;;;;;;;6.82;3.00;;;4.20;99.90;;;;;;5030009;28;20067;-87
2022/01/19 13:15:47;;;;;;;7.65;3.85;;;4.40;99.90;;;;;;5014508;28;20521;-87
2022/01/19 13:18:35;;;;;;;6.40;3.90;;;4.50;99.90;;;;;;5029880;28;20060;-86
2022/01/19 13:21:14;;;;;;;7.15;3.58;;;4.50;99.90;;;;;;5030205;28;20046;-87
2022/01/19 13:23:55;;;;;;;7.07;3.67;;;4.20;99.90;;;;;;5013361;28;20049;-87
2022/01/19 13:26:23;;;;;;;7.95;3.95;;;4.20;99.90;;;;;;5014574;28;20477;-89
2022/01/19 13:28:50;;;;;;;9.25;4.88;;;4.00;99.90;;;;;;5029574;28;20145;-87
2022/01/19 13:31:23;;;;;;;9.98;4.03;;;4.00;99.90;;;;;;5029915;28;20050;-86
2022/01/19 13:33:58;;;;;;;;;;;3.90;99.90;;;;;;5030543;28;20073;-88
2022/01/19 13:36:29;;;;;;;7.28;3.33;;;3.90;99.90;;;;;;5013475;28;20370;-86
2022/01/19 13:38:57;;;;;;;12.27;3.58;;;4.00;99.90;;;;;;5029497;28;20129;-87
2022/01/19 13:41:25;;;;;;;10.10;3.95;;;4.00;99.90;;;;;;5029834;28;20148;-87
2022/01/19 13:43:52;;;;;;;8.77;4.25;;;4.10;99.90;;;;;;5029641;28;20473;-87
2022/01/19 13:46:28;;;;;;;6.30;3.60;;;4.20;99.90;;;;;;5028978;28;20145;-88
2022/01/19 13:49:01;;;;;;;10.27;4.20;;;4.20;99.90;;;;;;5029488;28;20136;-87
2022/01/19 13:51:30;;;;;;;8.60;3.75;;;4.20;99.90;;;;;;5029321;28;20141;-87
2022/01/19 13:54:01;;;;;;;10.32;4.82;;;4.10;99.90;;;;;;5029336;28;20140;-87
2022/01/19 13:56:36;;;;;;;10.60;4.53;;;3.90;99.90;;;;;;5029216;28;20054;-87
2022/01/19 13:59:09;;;;;;;7.53;4.30;;;3.90;99.90;;;;;;5029046;28;20492;-86
2022/01/19 14:01:49;;;;;;;8.65;4.72;;;3.80;99.90;;;;;;5029351;28;20516;-87
2022/01/19 14:04:17;;;;;;;8.32;4.55;;;3.70;99.90;;;;;;5029335;28;20054;-87
2022/01/19 14:06:45;;;;;;;11.93;4.78;;;3.60;99.90;;;;;;5029146;28;20056;-88
2022/01/19 14:09:17;;;;;;;13.77;5.38;;;3.60;99.90;;;;;;5029933;28;20145;-92
2022/01/19 14:12:10;;;;;;;8.45;4.78;;;3.60;99.90;;;;;;5029476;28;20072;-89
2022/01/19 14:14:50;;;;;;;10.32;4.72;;;3.50;99.90;;;;;;5029391;28;20077;-93
2022/01/19 14:17:40;;;;;;;7.22;4.85;;;3.50;99.90;;;;;;5029249;28;20141;-89
2022/01/19 14:20:15;;;;;;;9.98;4.80;;;3.30;99.90;;;;;;5029180;28;20119;-87
2022/01/19 14:22:48;;;;;;;12.40;5.00;;;3.30;99.90;;;;;;5026844;28;20061;-88
2022/01/19 14:25:18;;;;;;;10.32;4.90;;;3.40;99.90;;;;;;5028807;28;20149;-88
2022/01/19 14:27:58;;;;;;;10.60;5.72;;;3.30;99.90;;;;;;5028382;28;20060;-88
2022/01/19 14:30:30;;;;;;;10.20;5.85;;;3.30;99.90;;;;;;5028958;28;20046;-88
2022/01/19 14:33:09;;;;;;;9.95;5.55;;;3.20;99.90;;;;;;5028514;28;20073;-88
2022/01/19 14:35:43;;;;;;;12.30;5.68;;;3.10;99.90;;;;;;5029851;28;20052;-88
2022/01/19 14:38:21;;;;;;;11.15;5.90;;;3.20;99.90;;;;;;5032669;28;20054;-88
2022/01/19 14:41:07;;;;;;;15.88;5.90;;;3.10;99.90;;;;;;5032783;28;20041;-87
2022/01/19 14:43:52;;;;;;;12.43;6.10;;;3.20;99.90;;;;;;5032269;28;20137;-88